메인 페이지
METAR-TAF:

METAR-TAF

공항 :

아카바, 요르단

위도: 29-38N, 경도: 035-01E, 고도: 53m

현재 날씨관측

예보는 37분 전, 08:00시(UTC)에 발표되었습니다.
8kt
온도 37°C
습도 15%
기압 1008 hPa
시정 10km 이상
1500m 미만 상공 구름 및 적란운 없음

METAR: OJAQ 210800Z 36008KT CAVOK 37/06 Q1008 NOSIG

시각: 11:37 (08:37 UTC)

예보

예보는 3 시간 37분 전, 05:00시(UTC)에 발표되었습니다.
예보 대상 시간: 21일 06시부터 22일 12시까지 (UTC)
10kt
시정: 8000m
확률 30% :
일시적
21일 11시부터 21일 17시까지 (UTC)
18kt
시정: 5000m
연무,

TAF: OJAQ 210500Z 2106/2212 36010KT 8000 NSC PROB30 TEMPO 2111/2117 36018KT 5000 HZ

4,000개 이상의 공항 관측 자료 및 예보 (METAR 및 TAF 보고).

지도상에서 검색 가능한 기상관측소가 노란 점과 빨간 점으로 표시되어 있습니다.

기상관측소 명을 보려면 표시 위로 마우스를 이동하세요.

날씨 관측과 예보를 보려면 클릭하세요.

지도 변경 : 확대하려면 엑스 표시가 있는 녹색 버튼, 축소하려면 빼기 표시가 있는 녹색 버튼, 다음 페이지의 지도를 보려면 녹색 화살표를 클릭하세요.


METAR-TAF: